createdAt,value
2022-10-17T00:02:23.759Z,4.22
2022-10-17T00:04:50.235Z,4.05
2022-10-17T00:07:16.630Z,4.55
2022-10-17T00:09:43.927Z,4.05
2022-10-17T00:12:10.606Z,4.20
2022-10-17T00:14:37.194Z,4.03
2022-10-17T00:17:03.561Z,4.47
2022-10-17T00:19:29.901Z,3.72
2022-10-17T00:21:56.340Z,4.32
2022-10-17T00:24:22.675Z,4.05
2022-10-17T00:26:48.990Z,4.25
2022-10-17T00:29:15.349Z,4.82
2022-10-17T00:31:41.914Z,4.57
2022-10-17T00:34:08.252Z,4.63
2022-10-17T00:36:34.924Z,4.88
2022-10-17T00:39:01.282Z,4.70
2022-10-17T00:41:31.123Z,4.97
2022-10-17T00:44:02.012Z,4.63
2022-10-17T00:46:34.126Z,4.43
2022-10-17T00:49:05.968Z,4.80
2022-10-17T00:51:41.614Z,4.53
2022-10-17T00:54:09.703Z,4.60
2022-10-17T00:56:36.849Z,4.82
2022-10-17T00:59:03.503Z,4.75
2022-10-17T01:01:30.092Z,5.03
2022-10-17T01:03:56.519Z,5.55
2022-10-17T01:06:22.878Z,5.07
2022-10-17T01:08:49.338Z,4.68
2022-10-17T01:11:49.733Z,4.63
2022-10-17T01:14:31.795Z,4.18
2022-10-17T01:17:05.783Z,5.00
2022-10-17T01:19:59.300Z,4.68
2022-10-17T01:22:36.903Z,5.25
2022-10-17T01:25:17.418Z,5.00
2022-10-17T01:28:11.504Z,5.20
2022-10-17T01:30:55.256Z,5.88
2022-10-17T01:33:27.678Z,5.45
2022-10-17T01:36:09.454Z,5.18
2022-10-17T01:38:43.411Z,6.60
2022-10-17T01:41:28.742Z,5.65
2022-10-17T01:44:17.635Z,6.10
2022-10-17T01:46:49.684Z,5.90
2022-10-17T01:49:20.590Z,5.50
2022-10-17T01:51:51.590Z,5.05
2022-10-17T01:56:56.500Z,5.13
2022-10-17T01:59:27.020Z,6.03
2022-10-17T02:01:56.226Z,5.30
2022-10-17T02:04:23.277Z,5.75
2022-10-17T02:06:49.666Z,5.30
2022-10-17T02:09:25.110Z,5.60
2022-10-17T02:12:16.262Z,5.53
2022-10-17T02:15:03.185Z,5.57
2022-10-17T02:17:42.711Z,6.78
2022-10-17T02:20:17.851Z,6.53
2022-10-17T02:22:54.065Z,5.75
2022-10-17T02:25:38.762Z,5.32
2022-10-17T02:28:14.156Z,5.55
2022-10-17T02:30:48.117Z,5.45
2022-10-17T02:33:35.427Z,6.30
2022-10-17T02:36:08.738Z,5.80
2022-10-17T02:38:35.597Z,6.22
2022-10-17T02:41:03.549Z,5.88
2022-10-17T02:43:30.207Z,6.15
2022-10-17T02:45:57.352Z,6.30
2022-10-17T02:48:38.680Z,6.50
2022-10-17T02:51:16.828Z,6.40
2022-10-17T02:54:24.416Z,6.45
2022-10-17T02:56:56.473Z,7.35
2022-10-17T02:59:25.902Z,6.25
2022-10-17T03:01:52.932Z,7.35
2022-10-17T03:04:19.481Z,6.55
2022-10-17T03:06:48.069Z,6.25
2022-10-17T03:09:14.907Z,6.07
2022-10-17T03:11:41.358Z,5.97
2022-10-17T03:14:07.700Z,5.78
2022-10-17T03:16:34.134Z,5.18
2022-10-17T03:19:00.470Z,6.57
2022-10-17T03:21:26.827Z,6.43
2022-10-17T03:23:53.233Z,6.60
2022-10-17T03:26:19.651Z,6.10
2022-10-17T03:28:47.625Z,7.20
2022-10-17T03:31:17.478Z,6.32
2022-10-17T03:33:43.839Z,6.60
2022-10-17T03:36:13.644Z,5.88
2022-10-17T03:38:40.373Z,5.93
2022-10-17T03:41:07.534Z,6.60
2022-10-17T03:43:33.962Z,7.13
2022-10-17T03:46:01.534Z,5.90
2022-10-17T03:48:29.575Z,6.75
2022-10-17T03:51:03.854Z,7.30
2022-10-17T03:53:30.335Z,6.82
2022-10-17T03:55:57.744Z,6.40
2022-10-17T03:58:24.122Z,7.05
2022-10-17T04:00:50.531Z,6.55
2022-10-17T04:03:17.288Z,6.85
2022-10-17T04:05:43.839Z,7.07
2022-10-17T04:08:10.244Z,6.72
2022-10-17T04:10:36.599Z,7.93
2022-10-17T04:13:03.007Z,6.82
2022-10-17T04:15:29.433Z,6.75
2022-10-17T04:17:55.838Z,7.30
2022-10-17T04:20:22.329Z,11.55
2022-10-17T04:22:48.663Z,9.57
2022-10-17T04:25:15.138Z,8.90
2022-10-17T04:27:41.552Z,10.38
2022-10-17T04:30:08.146Z,9.30
2022-10-17T04:32:38.006Z,7.18
2022-10-17T04:35:04.840Z,6.65
2022-10-17T04:37:31.284Z,6.45
2022-10-17T04:39:57.636Z,4.88
2022-10-17T04:42:24.020Z,4.40
2022-10-17T04:44:50.352Z,3.53
2022-10-17T04:47:16.739Z,4.13
2022-10-17T04:49:43.082Z,4.55
2022-10-17T04:52:09.398Z,4.65
2022-10-17T04:54:35.749Z,4.90
2022-10-17T04:57:02.083Z,4.30
2022-10-17T04:59:29.828Z,5.18
2022-10-17T05:01:56.172Z,4.68
2022-10-17T05:04:24.812Z,5.07
2022-10-17T05:06:51.363Z,5.07
2022-10-17T05:09:17.759Z,5.00
2022-10-17T05:11:44.182Z,4.60
2022-10-17T05:14:10.548Z,5.05
2022-10-17T05:16:36.953Z,4.97
2022-10-17T05:19:03.662Z,3.95
2022-10-17T05:21:30.507Z,5.68
2022-10-17T05:23:57.324Z,5.55
2022-10-17T05:26:24.576Z,4.43
2022-10-17T05:28:52.519Z,5.57
2022-10-17T05:31:19.203Z,9.27
2022-10-17T05:33:45.668Z,5.60
2022-10-17T05:36:12.023Z,4.72
2022-10-17T05:38:38.408Z,4.68
2022-10-17T05:41:06.029Z,4.47
2022-10-17T05:43:33.441Z,4.57
2022-10-17T05:46:04.089Z,4.40
2022-10-17T05:48:30.527Z,3.53
2022-10-17T05:50:59.206Z,3.72
2022-10-17T05:53:25.683Z,3.70
2022-10-17T05:56:02.761Z,3.30
2022-10-17T05:58:49.233Z,4.05
2022-10-17T06:01:16.483Z,4.00
2022-10-17T06:03:42.868Z,3.70
2022-10-17T06:06:12.411Z,3.65
2022-10-17T06:08:39.149Z,4.15
2022-10-17T06:11:09.172Z,4.03
2022-10-17T06:13:37.110Z,4.90
2022-10-17T06:16:03.485Z,4.47
2022-10-17T06:18:29.824Z,4.80
2022-10-17T06:21:03.516Z,3.70
2022-10-17T06:23:29.991Z,3.88
2022-10-17T06:26:01.299Z,3.72
2022-10-17T06:28:27.890Z,4.22
2022-10-17T06:30:54.349Z,3.92
2022-10-17T06:33:21.453Z,3.53
2022-10-17T06:35:54.707Z,4.10
2022-10-17T06:38:21.746Z,3.80
2022-10-17T06:40:48.220Z,3.72
2022-10-17T06:43:14.795Z,3.45
2022-10-17T06:45:41.829Z,3.10
2022-10-17T06:48:08.565Z,3.38
2022-10-17T06:50:35.169Z,3.60
2022-10-17T06:53:01.617Z,4.18
2022-10-17T06:55:28.060Z,3.70
2022-10-17T06:57:55.934Z,3.83
2022-10-17T07:00:23.957Z,3.08
2022-10-17T07:02:50.437Z,3.67
2022-10-17T07:05:17.249Z,3.47
2022-10-17T07:07:44.842Z,2.83
2022-10-17T07:10:12.804Z,2.63
2022-10-17T07:12:39.302Z,3.10
2022-10-17T07:15:06.094Z,3.00
2022-10-17T07:17:32.689Z,2.83
2022-10-17T07:19:59.108Z,2.33
2022-10-17T07:22:25.567Z,2.72
2022-10-17T07:24:52.029Z,2.80
2022-10-17T07:27:18.472Z,3.03
2022-10-17T07:29:44.936Z,3.10
2022-10-17T07:32:11.309Z,3.53
2022-10-17T07:34:37.939Z,3.72
2022-10-17T07:37:06.843Z,5.00
2022-10-17T07:39:35.615Z,6.00
2022-10-17T07:42:02.325Z,5.57
2022-10-17T07:44:28.749Z,6.53
2022-10-17T07:46:55.175Z,6.82
2022-10-17T07:49:21.644Z,7.05
2022-10-17T07:51:49.886Z,7.55
2022-10-17T07:54:17.721Z,7.97
2022-10-17T07:56:50.263Z,8.73
2022-10-17T07:59:18.547Z,9.05
2022-10-17T08:01:45.032Z,8.70
2022-10-17T08:04:12.429Z,8.35
2022-10-17T08:06:39.766Z,9.15
2022-10-17T08:09:06.631Z,8.90
2022-10-17T08:11:33.043Z,7.57
2022-10-17T08:13:59.495Z,7.65
2022-10-17T08:16:26.021Z,9.60
2022-10-17T08:18:53.754Z,9.38
2022-10-17T08:21:20.193Z,11.15
2022-10-17T08:23:46.636Z,11.18
2022-10-17T08:26:16.623Z,11.05
2022-10-17T08:28:44.287Z,11.88
2022-10-17T08:31:13.191Z,11.60
2022-10-17T08:33:40.713Z,12.45
2022-10-17T08:36:08.931Z,12.80
2022-10-17T08:38:38.514Z,11.48
2022-10-17T08:41:13.698Z,14.68
2022-10-17T08:43:49.236Z,12.63
2022-10-17T08:48:49.871Z,12.55
2022-10-17T08:51:22.879Z,13.88
2022-10-17T08:53:51.857Z,13.05
2022-10-17T08:59:18.867Z,13.57
2022-10-17T09:02:01.315Z,12.88
2022-10-17T09:04:49.298Z,12.75
2022-10-17T09:07:30.876Z,12.82
2022-10-17T09:10:03.149Z,12.13
2022-10-17T09:12:43.948Z,12.90
2022-10-17T09:15:26.534Z,11.60
2022-10-17T09:18:03.393Z,11.77
2022-10-17T09:20:47.474Z,12.60
2022-10-17T09:23:21.910Z,12.77
2022-10-17T09:25:52.238Z,12.25
2022-10-17T09:28:35.957Z,11.40
2022-10-17T09:31:06.826Z,13.05
2022-10-17T09:33:55.879Z,13.95
2022-10-17T09:36:24.987Z,13.93
2022-10-17T09:38:58.224Z,14.63
2022-10-17T09:41:45.240Z,14.15
2022-10-17T09:44:43.763Z,13.30
2022-10-17T09:47:30.751Z,13.77
2022-10-17T09:49:57.835Z,12.48
2022-10-17T09:52:33.756Z,13.27
2022-10-17T09:55:15.639Z,12.45
2022-10-17T09:58:11.635Z,12.63
2022-10-17T10:00:44.343Z,12.10
2022-10-17T10:03:24.115Z,12.90
2022-10-17T10:06:01.180Z,12.88
2022-10-17T10:08:37.132Z,12.73
2022-10-17T10:11:07.857Z,12.55
2022-10-17T10:13:36.080Z,11.50
2022-10-17T10:16:30.439Z,11.80
2022-10-17T10:18:58.120Z,11.18
2022-10-17T10:21:27.505Z,11.85
2022-10-17T10:24:06.680Z,12.35
2022-10-17T10:26:43.827Z,13.50
2022-10-17T10:29:31.263Z,12.95
2022-10-17T10:32:19.154Z,11.40
2022-10-17T10:37:29.720Z,11.38
2022-10-17T10:40:15.579Z,11.05
2022-10-17T10:42:42.418Z,10.52
2022-10-17T10:45:35.947Z,10.75
2022-10-17T10:48:24.686Z,10.35
2022-10-17T10:51:14.822Z,10.23
2022-10-17T10:53:56.020Z,9.02
2022-10-17T10:56:35.095Z,10.85
2022-10-17T10:59:52.970Z,10.02
2022-10-17T11:02:27.459Z,10.65
2022-10-17T11:05:12.079Z,9.32
2022-10-17T11:07:45.459Z,9.32
2022-10-17T11:10:22.946Z,10.95
2022-10-17T11:13:10.624Z,9.25
2022-10-17T11:18:22.321Z,9.73
2022-10-17T11:20:57.608Z,10.02
2022-10-17T11:23:38.396Z,10.55
2022-10-17T11:26:13.251Z,10.32
2022-10-17T11:28:39.801Z,10.32
2022-10-17T11:31:12.949Z,9.85
2022-10-17T11:33:39.317Z,10.38
2022-10-17T11:36:08.991Z,9.85
2022-10-17T11:38:47.834Z,10.25
2022-10-17T11:41:20.899Z,9.93
2022-10-17T11:43:53.102Z,10.93
2022-10-17T11:46:24.916Z,11.52
2022-10-17T11:49:41.856Z,10.05
2022-10-17T11:52:37.726Z,10.15
2022-10-17T11:55:20.373Z,10.10
2022-10-17T11:57:58.560Z,10.98
2022-10-17T12:00:55.006Z,9.63
2022-10-17T12:03:47.928Z,10.10
2022-10-17T12:06:29.492Z,9.60
2022-10-17T12:09:25.459Z,9.52
2022-10-17T12:11:57.427Z,8.30
2022-10-17T12:14:46.663Z,8.98
2022-10-17T12:17:22.344Z,8.48
2022-10-17T12:19:48.907Z,7.30
2022-10-17T12:22:19.667Z,8.50
2022-10-17T12:25:00.342Z,8.05
2022-10-17T12:27:37.018Z,8.30
2022-10-17T12:30:26.279Z,9.18
2022-10-17T12:33:06.711Z,7.35
2022-10-17T12:35:36.279Z,7.68
2022-10-17T12:38:13.813Z,8.27
2022-10-17T12:40:48.468Z,7.95
2022-10-17T12:43:17.913Z,8.70
2022-10-17T12:46:10.786Z,7.25
2022-10-17T12:48:37.160Z,8.90
2022-10-17T12:51:34.797Z,7.78
2022-10-17T12:54:14.924Z,7.78
2022-10-17T12:56:44.466Z,7.93
2022-10-17T12:59:16.355Z,7.55
2022-10-17T13:01:46.557Z,8.15
2022-10-17T13:04:13.374Z,8.75
2022-10-17T13:06:54.116Z,7.78
2022-10-17T13:09:32.543Z,7.78
2022-10-17T13:12:02.677Z,8.18
2022-10-17T13:14:32.490Z,8.00
2022-10-17T13:17:04.536Z,8.43
2022-10-17T13:19:42.048Z,7.18
2022-10-17T13:22:16.703Z,6.90
2022-10-17T13:24:43.382Z,7.30
2022-10-17T13:27:30.949Z,7.85
2022-10-17T13:29:59.576Z,7.35
2022-10-17T13:32:36.027Z,6.75
2022-10-17T13:35:14.815Z,6.25
2022-10-17T13:37:43.511Z,6.20
2022-10-17T13:40:44.716Z,7.38
2022-10-17T13:43:19.868Z,6.35
2022-10-17T13:45:55.066Z,5.70
2022-10-17T13:48:27.165Z,5.75
2022-10-17T13:51:00.386Z,5.43
2022-10-17T13:53:33.323Z,5.53
2022-10-17T13:56:33.940Z,5.78
2022-10-17T13:59:07.986Z,5.53
2022-10-17T14:01:34.772Z,5.53
2022-10-17T14:04:11.651Z,5.25
2022-10-17T14:06:49.283Z,5.78
2022-10-17T14:09:22.594Z,5.00
2022-10-17T14:12:12.522Z,5.05
2022-10-17T14:15:05.252Z,5.97
2022-10-17T14:17:29.790Z,4.75
2022-10-17T14:23:10.583Z,6.63
2022-10-17T14:25:40.175Z,4.60
2022-10-17T14:28:12.658Z,6.82
2022-10-17T14:30:56.158Z,7.03
2022-10-17T14:33:24.024Z,5.70
2022-10-17T14:35:55.615Z,5.13
2022-10-17T14:38:22.872Z,4.93
2022-10-17T14:41:30.307Z,5.07
2022-10-17T14:44:04.576Z,5.18
2022-10-17T14:46:31.228Z,5.35
2022-10-17T14:49:20.497Z,5.05
2022-10-17T14:52:18.796Z,5.03
2022-10-17T14:54:56.112Z,6.05
2022-10-17T14:57:27.984Z,7.88
2022-10-17T14:59:57.636Z,9.20
2022-10-17T15:02:29.898Z,6.72
2022-10-17T15:04:56.845Z,8.07
2022-10-17T15:07:23.869Z,7.78
2022-10-17T15:09:53.122Z,7.35
2022-10-17T15:12:22.776Z,8.40
2022-10-17T15:14:49.476Z,6.85
2022-10-17T15:17:20.760Z,4.82
2022-10-17T15:19:48.490Z,6.60
2022-10-17T15:22:16.060Z,5.07
2022-10-17T15:24:42.598Z,4.60
2022-10-17T15:27:16.607Z,4.15
2022-10-17T15:29:43.058Z,4.78
2022-10-17T15:32:09.515Z,4.55
2022-10-17T15:34:35.874Z,5.57
2022-10-17T15:37:04.851Z,4.88
2022-10-17T15:39:31.316Z,4.72
2022-10-17T15:41:58.697Z,6.10
2022-10-17T15:44:25.094Z,12.88
2022-10-17T15:46:51.567Z,19.38
2022-10-17T15:49:19.647Z,18.10
2022-10-17T15:51:51.701Z,18.67
2022-10-17T15:54:21.775Z,9.15
2022-10-17T15:56:53.950Z,34.42
2022-10-17T15:59:25.874Z,12.25
2022-10-17T16:01:52.476Z,7.78
2022-10-17T16:04:18.949Z,11.27
2022-10-17T16:06:45.476Z,9.20
2022-10-17T16:09:11.911Z,9.27
2022-10-17T16:11:41.411Z,17.45
2022-10-17T16:14:15.238Z,15.45
2022-10-17T16:16:41.766Z,15.20
2022-10-17T16:19:08.475Z,8.93
2022-10-17T16:21:39.783Z,7.60
2022-10-17T16:24:06.473Z,7.25
2022-10-17T16:26:32.966Z,6.47
2022-10-17T16:29:02.753Z,6.32
2022-10-17T16:31:33.059Z,6.07
2022-10-17T16:34:01.391Z,6.07
2022-10-17T16:36:28.090Z,5.45
2022-10-17T16:38:54.578Z,7.50
2022-10-17T16:41:29.903Z,6.93
2022-10-17T16:43:58.806Z,5.43
2022-10-17T16:46:26.811Z,6.40
2022-10-17T16:48:53.827Z,10.40
2022-10-17T16:51:20.731Z,7.07
2022-10-17T16:53:50.099Z,6.95
2022-10-17T16:56:18.741Z,6.68
2022-10-17T16:58:46.015Z,6.30
2022-10-17T17:01:15.418Z,6.18
2022-10-17T17:03:43.339Z,5.75
2022-10-17T17:06:14.318Z,4.90
2022-10-17T17:08:42.063Z,5.20
2022-10-17T17:11:10.416Z,4.95
2022-10-17T17:13:37.635Z,5.95
2022-10-17T17:16:05.449Z,6.22
2022-10-17T17:18:32.154Z,5.63
2022-10-17T17:21:04.781Z,5.90
2022-10-17T17:23:33.764Z,6.70
2022-10-17T17:26:11.758Z,6.97
2022-10-17T17:28:39.156Z,6.60
2022-10-17T17:31:10.639Z,7.07
2022-10-17T17:33:39.049Z,7.70
2022-10-17T17:36:06.411Z,8.82
2022-10-17T17:38:35.691Z,8.18
2022-10-17T17:41:03.195Z,7.38
2022-10-17T17:43:30.148Z,8.65
2022-10-17T17:46:00.976Z,8.52
2022-10-17T17:50:53.751Z,6.88
2022-10-17T17:53:20.096Z,6.00
2022-10-17T17:55:46.648Z,7.20
2022-10-17T17:58:13.288Z,6.65
2022-10-17T18:00:40.568Z,6.80
2022-10-17T18:03:07.380Z,8.23
2022-10-17T18:05:34.021Z,7.40
2022-10-17T18:08:00.369Z,7.97
2022-10-17T18:10:28.335Z,7.80
2022-10-17T18:12:54.698Z,8.38
2022-10-17T18:15:21.113Z,8.25
2022-10-17T18:17:47.761Z,7.45
2022-10-17T18:20:14.096Z,8.18
2022-10-17T18:22:40.515Z,8.63
2022-10-17T18:25:07.328Z,8.10
2022-10-17T18:27:33.891Z,8.07
2022-10-17T18:30:00.218Z,8.18
2022-10-17T18:32:31.098Z,8.82
2022-10-17T18:34:57.867Z,8.85
2022-10-17T18:37:24.289Z,9.55
2022-10-17T18:39:52.649Z,8.63
2022-10-17T18:42:18.988Z,7.57
2022-10-17T18:44:47.742Z,9.32
2022-10-17T18:47:14.143Z,7.80
2022-10-17T18:49:40.677Z,8.95
2022-10-17T18:52:07.055Z,9.48
2022-10-17T18:54:34.601Z,9.02
2022-10-17T18:57:01.229Z,7.97
2022-10-17T18:59:27.791Z,9.13
2022-10-17T19:01:54.321Z,9.45
2022-10-17T19:04:21.175Z,9.40
2022-10-17T19:06:48.519Z,8.43
2022-10-17T19:09:15.268Z,9.25
2022-10-17T19:11:43.252Z,9.70
2022-10-17T19:14:14.405Z,8.77
2022-10-17T19:16:46.664Z,9.15
2022-10-17T19:19:16.137Z,9.77
2022-10-17T19:21:42.950Z,9.80
2022-10-17T19:24:13.695Z,9.95
2022-10-17T19:26:41.265Z,10.00
2022-10-17T19:29:07.812Z,9.77
2022-10-17T19:31:35.652Z,10.25
2022-10-17T19:34:02.173Z,9.35
2022-10-17T19:36:33.654Z,9.35
2022-10-17T19:39:02.845Z,9.15
2022-10-17T19:41:29.411Z,10.18
2022-10-17T19:43:55.986Z,10.70
2022-10-17T19:46:24.935Z,10.40
2022-10-17T19:48:51.791Z,9.70
2022-10-17T19:51:20.736Z,10.23
2022-10-17T19:53:47.616Z,11.65
2022-10-17T19:56:14.171Z,10.88
2022-10-17T19:58:45.262Z,10.90
2022-10-17T20:01:26.726Z,11.65
2022-10-17T20:03:53.767Z,11.38
2022-10-17T20:06:21.397Z,10.73
2022-10-17T20:08:48.888Z,11.18
2022-10-17T20:11:22.370Z,11.18
2022-10-17T20:13:48.751Z,11.38
2022-10-17T20:16:23.069Z,11.82
2022-10-17T20:18:51.231Z,11.30
2022-10-17T20:21:25.083Z,12.00
2022-10-17T20:23:51.516Z,12.00
2022-10-17T20:26:38.617Z,11.48
2022-10-17T20:31:39.391Z,11.40
2022-10-17T20:34:05.982Z,13.48
2022-10-17T20:36:36.522Z,12.98
2022-10-17T20:39:05.387Z,15.68
2022-10-17T20:41:31.805Z,13.07
2022-10-17T20:43:59.268Z,11.95
2022-10-17T20:49:17.567Z,12.82
2022-10-17T20:51:44.828Z,11.90
2022-10-17T20:54:12.594Z,11.43
2022-10-17T20:56:39.789Z,13.02
2022-10-17T20:59:10.594Z,14.15
2022-10-17T21:01:40.460Z,13.80
2022-10-17T21:04:33.456Z,15.43
2022-10-17T21:06:53.495Z,14.70
2022-10-17T21:09:20.325Z,14.27
2022-10-17T21:11:48.259Z,14.27
2022-10-17T21:14:16.659Z,15.23
2022-10-17T21:16:43.298Z,14.18
2022-10-17T21:19:11.529Z,14.57
2022-10-17T21:21:40.463Z,15.18
2022-10-17T21:24:12.864Z,16.42
2022-10-17T21:26:40.432Z,15.48
2022-10-17T21:29:07.788Z,15.18
2022-10-17T21:31:37.416Z,13.98
2022-10-17T21:34:27.694Z,14.07
2022-10-17T21:36:54.068Z,15.38
2022-10-17T21:39:21.844Z,14.05
2022-10-17T21:41:48.331Z,15.82
2022-10-17T21:44:20.841Z,15.50
2022-10-17T21:46:48.011Z,14.32
2022-10-17T21:49:17.322Z,15.50
2022-10-17T21:51:44.797Z,14.68
2022-10-17T21:54:11.423Z,14.07
2022-10-17T21:56:37.730Z,14.30
2022-10-17T21:59:04.829Z,14.63
2022-10-17T22:01:38.810Z,14.32
2022-10-17T22:04:07.771Z,14.57
2022-10-17T22:06:40.056Z,14.35
2022-10-17T22:09:10.067Z,15.05
2022-10-17T22:11:36.615Z,15.68
2022-10-17T22:14:10.732Z,14.15
2022-10-17T22:16:37.808Z,13.20
2022-10-17T22:19:06.655Z,14.88
2022-10-17T22:21:34.865Z,13.95
2022-10-17T22:24:04.444Z,13.52
2022-10-17T22:26:33.044Z,14.52
2022-10-17T22:28:59.657Z,13.90
2022-10-17T22:31:26.434Z,13.88
2022-10-17T22:33:55.964Z,13.68
2022-10-17T22:36:22.542Z,13.55
2022-10-17T22:38:48.890Z,14.32
2022-10-17T22:41:15.268Z,14.00
2022-10-17T22:43:41.598Z,14.02
2022-10-17T22:46:08.416Z,14.18
2022-10-17T22:48:35.193Z,12.73
2022-10-17T22:51:02.652Z,15.80
2022-10-17T22:53:29.913Z,14.00
2022-10-17T22:56:03.730Z,13.70
2022-10-17T22:58:31.457Z,13.23
2022-10-17T23:00:58.644Z,13.77
2022-10-17T23:03:27.282Z,13.50
2022-10-17T23:05:54.824Z,13.18
2022-10-17T23:08:21.333Z,14.50
2022-10-17T23:10:48.148Z,14.93
2022-10-17T23:13:15.858Z,13.30
2022-10-17T23:15:43.211Z,15.40
2022-10-17T23:18:10.259Z,14.85
2022-10-17T23:20:37.811Z,15.35
2022-10-17T23:23:04.803Z,14.75
2022-10-17T23:25:33.785Z,15.27
2022-10-17T23:28:00.749Z,15.88
2022-10-17T23:30:27.288Z,13.57
2022-10-17T23:32:53.776Z,15.52
2022-10-17T23:35:20.149Z,15.77
2022-10-17T23:37:46.512Z,13.93
2022-10-17T23:40:13.104Z,14.88
2022-10-17T23:42:39.568Z,14.25
2022-10-17T23:45:06.654Z,15.73
2022-10-17T23:47:33.375Z,14.23
2022-10-17T23:50:00.096Z,15.73
2022-10-17T23:52:26.482Z,14.77
2022-10-17T23:54:52.963Z,14.68
2022-10-17T23:57:19.474Z,15.05
2022-10-17T23:59:45.883Z,15.23
